METAR Data
IDs: Format: Raw Decoded Include TAF

Data at: 0239 UTC 24 Sep 2018

METAR for:KZPH (Zephyrhills Muni, FL, US)
Text:KZPH 240235Z AUTO 00000KT 10SM BKN065 26/23 A3003 RMK AO2 LTG DSNT W T02560227
Temperature: 25.6°C ( 78°F)
Dewpoint: 22.7°C ( 73°F) [RH = 84%]
Pressure (altimeter):30.03 inches Hg (1017.0 mb)
Winds:calm
Visibility:10 or more sm (16+ km)
Ceiling:6500 feet AGL
Clouds: broken clouds at 6500 feet AGL
QC Flag:automated observation with no human augmentation